Time;durP1;ratioP1;P1;durP2;ratioP2;P2;SDS_P1;SDS_P2;PMS_P1;PMS_P2;Temp;Humidity;BMP_temperature;BMP_pressure;BME280_temperature;BME280_humidity;BME280_pressure;Samples;Min_cycle;Max_cycle;Signal;HPM_P1;HPM_P2
2021/07/16 00:00:16;;;;;;;24.95;3.58;;;41.50;33.30;;;;;;5071112;28;20486;-65
2021/07/16 00:02:44;;;;;;;38.97;4.20;;;41.50;33.40;;;;;;5070918;28;20069;-64
2021/07/16 00:05:12;;;;;;;37.63;3.72;;;41.60;50.70;;;;;;5069902;28;20770;-66
2021/07/16 00:07:40;;;;;;;39.47;4.65;;;41.30;34.20;;;;;;5070016;28;20172;-66
2021/07/16 00:10:08;;;;;;;34.60;4.13;;;41.40;34.30;;;;;;5070081;28;20097;-68
2021/07/16 00:12:36;;;;;;;37.22;4.13;;;41.30;34.50;;;;;;5072015;28;20544;-68
2021/07/16 00:15:04;;;;;;;31.60;4.22;;;41.30;34.60;;;;;;5067744;28;20073;-66
2021/07/16 00:17:30;;;;;;;31.95;4.47;;;41.30;34.10;;;;;;5070149;28;20080;-65
2021/07/16 00:19:57;;;;;;;55.78;5.15;;;41.20;33.90;;;;;;5071124;28;20430;-65
2021/07/16 00:22:23;;;;;;;31.77;5.00;;;41.10;33.20;;;;;;5069619;28;20084;-66
2021/07/16 00:24:50;;;;;;;31.27;4.68;;;40.90;33.30;;;;;;5069202;28;20111;-65
2021/07/16 00:27:17;;;;;;;36.90;5.20;;;40.70;33.50;;;;;;5071558;28;20116;-64
2021/07/16 00:29:44;;;;;;;27.58;4.22;;;40.80;33.20;;;;;;5070297;28;20093;-66
2021/07/16 00:32:10;;;;;;;32.00;4.15;;;40.60;33.20;;;;;;5070517;28;20163;-65
2021/07/16 00:34:37;;;;;;;30.55;4.72;;;40.60;33.60;;;;;;5053896;28;20073;-66
2021/07/16 00:37:04;;;;;;;31.20;3.72;;;40.50;33.10;;;;;;5069828;28;20073;-66
2021/07/16 00:39:32;;;;;;;27.08;3.97;;;40.40;33.30;;;;;;5070223;28;20115;-66
2021/07/16 00:41:58;;;;;;;16.95;3.38;;;40.30;33.40;;;;;;5070561;28;20100;-66
2021/07/16 00:44:26;;;;;;;25.17;4.35;;;40.30;33.70;;;;;;5072470;28;20069;-65
2021/07/16 00:46:53;;;;;;;26.00;5.05;;;40.20;34.00;;;;;;5070128;28;20085;-64
2021/07/16 00:49:19;;;;;;;37.33;6.03;;;40.30;34.10;;;;;;5069871;28;20093;-66
2021/07/16 00:51:46;;;;;;;26.05;4.75;;;40.10;34.30;;;;;;5069154;28;20172;-65
2021/07/16 00:54:13;;;;;;;21.42;4.95;;;40.10;34.50;;;;;;5068969;28;20433;-66
2021/07/16 00:56:40;;;;;;;36.80;5.00;;;40.10;34.50;;;;;;5071575;28;20081;-65
2021/07/16 00:59:06;;;;;;;18.55;4.57;;;39.90;34.50;;;;;;5070601;28;20142;-65
2021/07/16 01:01:33;;;;;;;34.92;4.32;;;39.90;34.50;;;;;;5070366;28;20164;-66
2021/07/16 01:04:00;;;;;;;32.97;4.40;;;39.80;34.40;;;;;;5069626;28;20076;-66
2021/07/16 01:06:28;;;;;;;36.15;5.82;;;39.70;34.90;;;;;;5070265;28;20069;-66
2021/07/16 01:08:54;;;;;;;23.10;4.28;;;39.60;35.00;;;;;;5070174;28;20058;-64
2021/07/16 01:11:21;;;;;;;20.55;3.55;;;39.70;34.00;;;;;;5070351;28;20190;-64
2021/07/16 01:13:47;;;;;;;33.15;3.50;;;39.60;33.20;;;;;;5067160;28;20072;-64
2021/07/16 01:16:14;;;;;;;39.15;3.85;;;39.60;33.10;;;;;;5069186;28;20078;-65
2021/07/16 01:18:41;;;;;;;26.45;4.63;;;39.70;33.60;;;;;;5071211;28;20079;-63
2021/07/16 01:21:08;;;;;;;23.38;5.28;;;39.70;33.10;;;;;;5072771;28;20470;-65
2021/07/16 01:23:34;;;;;;;29.80;4.78;;;39.80;33.30;;;;;;5042840;28;20050;-64
2021/07/16 01:26:04;;;;;;;44.63;5.47;;;39.80;33.30;;;;;;5073631;28;20423;-65
2021/07/16 01:28:30;;;;;;;36.60;5.30;;;39.80;33.30;;;;;;5073350;28;20089;-65
2021/07/16 01:30:57;;;;;;;51.22;5.45;;;39.80;33.20;;;;;;5073777;28;20093;-66
2021/07/16 01:33:24;;;;;;;40.40;4.28;;;39.70;33.40;;;;;;5073702;28;20108;-65
2021/07/16 01:35:51;;;;;;;40.55;4.43;;;39.60;33.40;;;;;;5075934;28;20085;-66
2021/07/16 01:38:17;;;;;;;31.38;4.88;;;39.50;33.40;;;;;;5072859;28;20072;-66
2021/07/16 01:40:46;;;;;;;41.50;4.97;;;39.50;33.60;;;;;;5073615;28;20131;-66
2021/07/16 01:43:14;;;;;;;55.92;6.63;;;39.50;33.50;;;;;;5073439;28;20109;-66
2021/07/16 01:45:42;;;;;;;48.92;6.50;;;39.40;33.50;;;;;;5072864;28;20077;-66
2021/07/16 01:48:27;;;;;;;58.92;9.05;;;39.30;33.60;;;;;;5073365;28;20073;-66
2021/07/16 01:50:53;;;;;;;61.03;10.65;;;39.20;33.70;;;;;;5071804;28;20093;-66
2021/07/16 01:53:21;;;;;;;58.13;11.77;;;39.10;33.70;;;;;;5072527;28;20167;-65
2021/07/16 01:55:48;;;;;;;59.30;14.05;;;39.10;33.50;;;;;;5073588;28;20450;-66
2021/07/16 01:58:15;;;;;;;47.63;10.23;;;38.80;33.10;;;;;;5073045;28;20484;-65
2021/07/16 02:00:47;;;;;;;42.30;8.63;;;39.30;32.80;;;;;;5073773;28;20073;-66
2021/07/16 02:03:15;;;;;;;42.17;7.95;;;39.30;32.50;;;;;;5073276;28;20065;-66
2021/07/16 02:05:47;;;;;;;37.05;7.22;;;39.10;32.70;;;;;;5072592;28;20081;-65
2021/07/16 02:08:22;;;;;;;38.50;8.35;;;39.00;32.60;;;;;;5072373;28;20127;-65
2021/07/16 02:10:52;;;;;;;32.53;9.05;;;38.80;32.70;;;;;;5058378;28;20100;-65
2021/07/16 02:13:19;;;;;;;33.72;8.05;;;38.80;33.00;;;;;;5071636;28;20091;-66
2021/07/16 02:15:48;;;;;;;35.75;6.68;;;38.60;33.20;;;;;;5059755;28;20089;-66
2021/07/16 02:18:16;;;;;;;28.45;6.10;;;38.60;33.30;;;;;;5072482;28;20081;-67
2021/07/16 02:20:43;;;;;;;29.63;5.22;;;38.60;33.40;;;;;;5073748;28;20084;-67
2021/07/16 02:23:13;;;;;;;29.75;4.70;;;38.60;33.80;;;;;;5071986;28;20084;-67
2021/07/16 02:25:40;;;;;;;23.83;3.67;;;38.60;34.30;;;;;;5072462;28;20465;-66
2021/07/16 02:28:19;;;;;;;21.85;3.20;;;38.60;35.10;;;;;;5071175;28;20108;-66
2021/07/16 02:30:45;;;;;;;21.10;3.83;;;38.40;35.80;;;;;;5071136;28;20093;-66
2021/07/16 02:33:13;;;;;;;30.80;4.35;;;38.20;38.80;;;;;;5071830;28;20084;-64
2021/07/16 02:35:39;;;;;;;25.55;3.65;;;38.10;36.30;;;;;;5073835;28;20142;-67
2021/07/16 02:38:06;;;;;;;29.08;3.63;;;38.20;36.60;;;;;;5072517;28;20069;-66
2021/07/16 02:40:34;;;;;;;27.23;4.10;;;38.10;36.90;;;;;;5072302;28;20190;-64
2021/07/16 02:43:01;;;;;;;26.67;3.58;;;38.00;37.00;;;;;;5071847;28;20126;-65
2021/07/16 02:45:28;;;;;;;22.30;3.80;;;38.00;37.10;;;;;;5071778;28;20450;-66
2021/07/16 02:47:54;;;;;;;27.40;3.40;;;37.90;37.40;;;;;;5070378;28;20069;-66
2021/07/16 02:50:26;;;;;;;19.75;3.10;;;37.90;37.50;;;;;;5071225;28;20100;-66
2021/07/16 02:52:53;;;;;;;28.88;4.28;;;37.80;37.70;;;;;;5060912;28;20103;-66
2021/07/16 02:55:20;;;;;;;17.00;3.03;;;37.80;37.90;;;;;;5073237;28;20084;-66
2021/07/16 02:57:48;;;;;;;28.60;3.17;;;37.70;37.60;;;;;;5070873;28;20164;-66
2021/07/16 03:00:18;;;;;;;16.25;2.95;;;37.70;38.20;;;;;;5071432;28;20099;-67
2021/07/16 03:02:47;;;;;;;15.05;3.03;;;37.60;38.50;;;;;;5071478;28;20077;-68
2021/07/16 03:05:37;;;;;;;14.95;3.28;;;37.50;38.60;;;;;;5058631;28;20527;-67
2021/07/16 03:08:09;;;;;;;14.57;2.70;;;37.50;38.70;;;;;;5071009;28;20069;-66
2021/07/16 03:10:41;;;;;;;13.27;2.70;;;37.30;39.10;;;;;;5071175;28;20641;-67
2021/07/16 03:13:16;;;;;;;29.98;3.88;;;37.20;39.30;;;;;;5071577;28;20081;-67
2021/07/16 03:15:43;;;;;;;26.63;3.90;;;37.20;39.30;;;;;;5072049;28;20073;-67
2021/07/16 03:18:11;;;;;;;21.95;5.13;;;37.20;39.40;;;;;;5072725;28;20104;-67
2021/07/16 03:20:42;;;;;;;24.40;4.55;;;37.10;39.30;;;;;;5072430;28;20069;-68
2021/07/16 03:23:11;;;;;;;26.05;4.22;;;37.10;39.50;;;;;;5072005;28;20069;-68
2021/07/16 03:25:38;;;;;;;26.05;5.43;;;37.00;39.70;;;;;;5072033;28;20473;-67
2021/07/16 03:28:06;;;;;;;17.85;4.15;;;36.90;39.70;;;;;;5071248;28;20453;-68
2021/07/16 03:30:33;;;;;;;29.42;4.30;;;36.90;39.80;;;;;;5069826;28;20182;-67
2021/07/16 03:33:00;;;;;;;17.38;3.42;;;36.80;39.70;;;;;;5071974;28;20130;-66
2021/07/16 03:35:28;;;;;;;22.52;4.05;;;36.80;39.70;;;;;;5072849;28;20465;-67
2021/07/16 03:37:55;;;;;;;20.30;5.25;;;36.70;39.50;;;;;;5071599;28;20084;-66
2021/07/16 03:40:27;;;;;;;24.73;3.97;;;36.70;39.60;;;;;;5071311;28;20159;-67
2021/07/16 03:42:55;;;;;;;23.40;4.55;;;36.60;39.80;;;;;;5069875;28;20099;-68
2021/07/16 03:45:21;;;;;;;22.58;4.80;;;36.50;39.70;;;;;;5071175;28;20103;-67
2021/07/16 03:47:49;;;;;;;26.25;5.00;;;36.50;39.80;;;;;;5071532;28;20152;-68
2021/07/16 03:50:20;;;;;;;24.02;4.65;;;36.50;39.80;;;;;;5070953;28;20089;-68
2021/07/16 03:52:48;;;;;;;22.63;4.43;;;36.50;39.50;;;;;;5069589;28;20466;-67
2021/07/16 03:55:14;;;;;;;28.88;4.20;;;36.50;39.60;;;;;;5072783;28;20160;-67
2021/07/16 03:57:45;;;;;;;19.50;3.90;;;36.30;39.70;;;;;;5071167;28;20518;-66
2021/07/16 04:00:15;;;;;;;20.63;4.35;;;36.30;39.80;;;;;;5057010;28;20176;-66
2021/07/16 04:02:43;;;;;;;32.83;4.93;;;36.30;39.80;;;;;;5071086;28;20521;-68
2021/07/16 04:05:10;;;;;;;17.63;4.03;;;36.30;39.70;;;;;;5071598;28;20139;-68
2021/07/16 04:07:45;;;;;;;25.95;4.60;;;36.20;39.50;;;;;;5054421;28;20462;-67
2021/07/16 04:10:21;;;;;;;28.95;4.18;;;36.20;39.70;;;;;;5055574;28;20119;-69
2021/07/16 04:13:09;;;;;;;22.98;3.92;;;36.20;39.50;;;;;;5069710;28;20069;-67
2021/07/16 04:15:37;;;;;;;28.20;3.88;;;36.20;39.30;;;;;;5070572;28;20119;-69
2021/07/16 04:18:05;;;;;;;28.48;3.85;;;36.20;39.30;;;;;;5058591;28;20160;-69
2021/07/16 04:20:33;;;;;;;15.23;3.25;;;36.20;39.10;;;;;;5070777;28;20107;-69
2021/07/16 04:23:00;;;;;;;27.27;3.80;;;36.10;39.20;;;;;;5069313;28;20079;-69
2021/07/16 04:25:27;;;;;;;20.52;3.97;;;36.10;39.20;;;;;;5071111;28;20159;-69
2021/07/16 04:28:00;;;;;;;31.08;3.78;;;36.10;39.10;;;;;;5071508;28;20104;-70
2021/07/16 04:30:27;;;;;;;19.98;3.53;;;36.10;39.00;;;;;;5059531;28;20093;-69
2021/07/16 04:32:56;;;;;;;15.98;3.53;;;36.00;39.20;;;;;;5071667;28;20069;-69
2021/07/16 04:35:23;;;;;;;22.10;3.22;;;36.00;39.30;;;;;;5070054;28;20165;-69
2021/07/16 04:37:50;;;;;;;22.50;3.17;;;36.00;39.40;;;;;;5056422;28;20077;-69
2021/07/16 04:40:22;;;;;;;14.13;2.50;;;35.90;39.50;;;;;;5071432;28;20445;-68
2021/07/16 04:42:50;;;;;;;17.50;2.83;;;35.90;39.80;;;;;;5068721;28;20069;-69
2021/07/16 04:45:18;;;;;;;20.40;3.90;;;35.80;40.00;;;;;;5058265;28;20088;-69
2021/07/16 04:47:45;;;;;;;13.98;2.95;;;35.80;40.20;;;;;;5055518;28;20430;-71
2021/07/16 04:50:12;;;;;;;16.77;3.22;;;35.70;40.40;;;;;;5074048;22;20132;-70
2021/07/16 04:52:45;;;;;;;14.32;2.88;;;35.70;40.50;;;;;;5061716;28;20065;-71
2021/07/16 04:55:13;;;;;;;15.18;2.47;;;35.60;40.70;;;;;;5046556;28;20081;-70
2021/07/16 04:57:40;;;;;;;13.88;3.10;;;35.50;40.90;;;;;;5058231;28;20078;-68
2021/07/16 05:00:09;;;;;;;15.98;3.40;;;35.50;40.90;;;;;;5069198;28;20076;-71
2021/07/16 05:02:38;;;;;;;15.48;3.20;;;35.40;41.30;;;;;;5065451;28;20080;-70
2021/07/16 05:05:06;;;;;;;20.27;3.25;;;35.30;41.50;;;;;;5044763;28;20461;-71
2021/07/16 05:07:32;;;;;;;15.43;3.50;;;35.30;42.10;;;;;;5050795;28;20498;-71
2021/07/16 05:09:59;;;;;;;13.55;3.35;;;35.30;42.60;;;;;;5046861;28;20443;-69
2021/07/16 05:12:26;;;;;;;12.43;3.30;;;35.20;43.00;;;;;;5067119;28;20395;-71
2021/07/16 05:14:52;;;;;;;16.33;3.55;;;35.10;44.30;;;;;;5064401;28;20454;-70
2021/07/16 05:17:19;;;;;;;11.23;3.55;;;35.00;44.30;;;;;;5064167;28;20077;-69
2021/07/16 05:19:45;;;;;;;15.50;3.47;;;34.90;44.90;;;;;;5049936;28;20069;-69
2021/07/16 05:22:12;;;;;;;14.65;3.47;;;34.80;45.00;;;;;;5063355;28;20438;-69
2021/07/16 05:24:38;;;;;;;19.23;3.97;;;34.80;45.60;;;;;;5062821;28;20081;-70
2021/07/16 05:27:06;;;;;;;15.88;3.28;;;34.70;46.00;;;;;;5032260;28;20081;-70
2021/07/16 05:29:32;;;;;;;16.83;3.22;;;34.80;46.10;;;;;;5063025;28;20093;-70
2021/07/16 05:31:59;;;;;;;13.77;2.97;;;34.70;46.50;;;;;;5065653;28;20083;-69
2021/07/16 05:34:25;;;;;;;14.18;2.85;;;34.70;47.20;;;;;;5062169;28;20122;-69
2021/07/16 05:36:52;;;;;;;15.88;2.95;;;34.50;49.10;;;;;;5063751;28;20460;-70
2021/07/16 05:39:18;;;;;;;17.23;2.92;;;34.40;50.40;;;;;;5063917;28;20069;-69
2021/07/16 05:41:45;;;;;;;14.20;3.00;;;34.30;51.40;;;;;;5062912;28;20153;-70
2021/07/16 05:44:11;;;;;;;15.27;3.50;;;34.30;52.70;;;;;;5062914;28;20073;-70
2021/07/16 05:46:38;;;;;;;13.00;3.05;;;34.20;53.60;;;;;;5063393;28;20065;-70
2021/07/16 05:49:04;;;;;;;12.82;3.42;;;34.00;54.50;;;;;;5066630;28;20136;-70
2021/07/16 05:51:31;;;;;;;12.88;2.92;;;34.00;54.80;;;;;;5063219;28;20097;-69
2021/07/16 05:53:57;;;;;;;11.52;3.10;;;33.90;55.50;;;;;;5060226;28;20069;-69
2021/07/16 05:56:23;;;;;;;11.70;2.90;;;33.90;55.90;;;;;;5067567;28;20114;-71
2021/07/16 05:58:50;;;;;;;15.95;3.08;;;33.90;56.20;;;;;;5064261;28;20085;-70
2021/07/16 06:01:16;;;;;;;12.15;2.97;;;33.80;56.70;;;;;;5062980;28;20074;-69
2021/07/16 06:03:43;;;;;;;11.60;3.20;;;33.80;56.90;;;;;;5064924;28;20203;-69
2021/07/16 06:06:12;;;;;;;24.05;3.75;;;33.70;57.30;;;;;;5063832;28;20076;-70
2021/07/16 06:08:39;;;;;;;12.80;3.42;;;33.70;57.60;;;;;;5063461;28;20159;-69
2021/07/16 06:11:05;;;;;;;12.48;3.58;;;33.60;58.10;;;;;;5052090;28;20182;-69
2021/07/16 06:13:32;;;;;;;13.32;3.22;;;33.40;58.40;;;;;;5068009;28;20095;-69
2021/07/16 06:15:58;;;;;;;11.65;2.88;;;33.40;58.70;;;;;;5067353;28;20111;-69
2021/07/16 06:18:25;;;;;;;14.60;3.45;;;33.40;59.00;;;;;;5067145;28;20079;-69
2021/07/16 06:20:51;;;;;;;13.98;3.42;;;33.30;58.80;;;;;;5049991;28;20442;-70
2021/07/16 06:23:18;;;;;;;13.18;3.05;;;33.30;58.90;;;;;;5071753;28;20506;-69
2021/07/16 06:25:44;;;;;;;14.68;3.30;;;33.30;58.90;;;;;;5065846;28;20078;-70
2021/07/16 06:28:11;;;;;;;13.85;3.38;;;33.30;58.80;;;;;;5051068;28;20414;-70
2021/07/16 06:30:38;;;;;;;13.68;3.20;;;33.20;58.60;;;;;;5048489;28;20113;-70
2021/07/16 06:33:05;;;;;;;11.02;3.10;;;33.20;58.50;;;;;;5066487;28;20069;-69
2021/07/16 06:35:31;;;;;;;14.98;3.78;;;33.10;58.10;;;;;;5068719;28;20571;-69
2021/07/16 06:37:58;;;;;;;14.27;3.10;;;33.00;58.10;;;;;;5063894;28;20081;-69
2021/07/16 06:40:24;;;;;;;11.43;3.20;;;33.10;58.10;;;;;;5064829;28;20160;-70
2021/07/16 06:42:51;;;;;;;17.35;3.28;;;33.00;58.10;;;;;;5066010;28;20082;-69
2021/07/16 06:45:17;;;;;;;12.00;3.15;;;33.00;58.20;;;;;;5068091;28;20080;-69
2021/07/16 06:47:44;;;;;;;11.48;2.63;;;33.00;58.30;;;;;;5066695;28;20081;-69
2021/07/16 06:50:11;;;;;;;15.38;3.30;;;33.10;58.40;;;;;;5065524;28;20120;-69
2021/07/16 06:52:37;;;;;;;13.10;3.42;;;33.00;58.30;;;;;;5065793;28;20072;-69
2021/07/16 06:55:04;;;;;;;14.00;3.15;;;33.00;58.50;;;;;;5063991;28;20083;-69
2021/07/16 06:57:31;;;;;;;14.73;3.42;;;33.00;58.80;;;;;;5072743;28;20065;-69
2021/07/16 06:59:57;;;;;;;8.88;3.13;;;32.90;59.30;;;;;;5067191;28;20074;-69
2021/07/16 07:02:24;;;;;;;11.27;2.85;;;32.90;59.60;;;;;;5066604;28;20084;-69
2021/07/16 07:04:50;;;;;;;10.85;3.15;;;32.80;59.90;;;;;;5063935;28;20066;-69
2021/07/16 07:07:17;;;;;;;11.02;2.83;;;32.80;60.10;;;;;;5066668;28;20085;-68
2021/07/16 07:09:43;;;;;;;13.43;3.00;;;32.80;60.60;;;;;;5061215;28;20681;-69
2021/07/16 07:12:10;;;;;;;13.90;3.40;;;32.80;60.60;;;;;;5064232;28;20088;-69
2021/07/16 07:14:36;;;;;;;16.67;3.63;;;32.80;60.70;;;;;;5066266;28;20077;-69
2021/07/16 07:17:03;;;;;;;11.77;2.85;;;32.70;61.20;;;;;;5061290;28;20088;-68
2021/07/16 07:19:29;;;;;;;9.45;3.10;;;32.70;61.70;;;;;;5069066;28;20075;-69
2021/07/16 07:21:56;;;;;;;11.15;3.08;;;32.60;62.10;;;;;;5067801;28;20083;-69
2021/07/16 07:24:23;;;;;;;15.00;3.20;;;32.60;62.30;;;;;;5047164;28;20495;-69
2021/07/16 07:26:53;;;;;;;14.05;3.20;;;32.70;62.50;;;;;;5049285;28;20077;-68
2021/07/16 07:29:21;;;;;;;16.17;3.33;;;32.70;62.50;;;;;;5063730;28;20077;-68
2021/07/16 07:31:48;;;;;;;15.35;3.63;;;32.60;63.00;;;;;;5061586;28;20531;-69
2021/07/16 07:34:14;;;;;;;20.23;3.55;;;32.50;63.40;;;;;;5065061;28;20073;-69
2021/07/16 07:36:41;;;;;;;14.07;2.97;;;32.50;63.70;;;;;;5065035;28;20153;-69
2021/07/16 07:39:08;;;;;;;13.82;3.40;;;32.50;63.90;;;;;;5065600;28;20081;-69
2021/07/16 07:41:34;;;;;;;12.32;3.05;;;32.50;64.10;;;;;;5064498;28;20122;-68
2021/07/16 07:44:00;;;;;;;16.67;3.30;;;32.50;64.40;;;;;;5064247;28;20108;-68
2021/07/16 07:46:27;;;;;;;16.10;3.33;;;32.40;64.60;;;;;;5065451;28;20077;-69
2021/07/16 07:48:54;;;;;;;9.75;2.60;;;32.40;65.20;;;;;;5049831;28;20085;-71
2021/07/16 07:51:21;;;;;;;11.18;2.80;;;32.50;64.70;;;;;;5066873;28;20643;-69
2021/07/16 07:53:47;;;;;;;15.23;3.53;;;32.50;64.70;;;;;;5062097;28;20077;-69
2021/07/16 07:56:14;;;;;;;11.25;3.42;;;32.50;64.70;;;;;;5066480;28;20084;-69
2021/07/16 07:58:40;;;;;;;12.00;3.60;;;32.40;65.00;;;;;;5063161;28;20548;-67
2021/07/16 08:01:07;;;;;;;16.20;2.90;;;32.40;65.20;;;;;;5065879;28;20090;-69
2021/07/16 08:03:33;;;;;;;14.35;4.00;;;32.40;65.30;;;;;;5060287;28;20530;-69
2021/07/16 08:06:00;;;;;;;14.75;2.97;;;32.30;65.70;;;;;;5064153;28;20176;-68
2021/07/16 08:08:27;;;;;;;13.00;3.00;;;32.20;66.10;;;;;;5063916;28;20065;-69
2021/07/16 08:10:53;;;;;;;13.55;3.15;;;32.20;66.50;;;;;;5066061;28;20192;-69
2021/07/16 08:13:20;;;;;;;12.30;3.17;;;32.20;66.50;;;;;;5064958;28;20545;-69
2021/07/16 08:15:46;;;;;;;14.50;3.15;;;32.10;66.60;;;;;;5066787;28;20156;-69
2021/07/16 08:18:13;;;;;;;15.43;3.15;;;32.20;67.00;;;;;;5067431;28;20069;-69
2021/07/16 08:20:39;;;;;;;14.25;3.42;;;32.10;66.80;;;;;;5048776;28;20077;-69
2021/07/16 08:23:06;;;;;;;11.52;3.53;;;32.00;67.20;;;;;;5065033;28;20084;-69
2021/07/16 08:25:35;;;;;;;13.63;2.83;;;32.00;66.90;;;;;;5064589;28;20522;-69
2021/07/16 08:28:03;;;;;;;17.65;2.97;;;32.00;66.80;;;;;;5060466;28;20079;-68
2021/07/16 08:30:29;;;;;;;19.98;3.60;;;32.00;67.40;;;;;;5061756;28;20112;-68
2021/07/16 08:32:56;;;;;;;8.35;2.65;;;32.00;66.80;;;;;;5063452;28;20131;-68
2021/07/16 08:35:22;;;;;;;10.93;2.80;;;32.00;66.90;;;;;;5066963;28;20546;-68
2021/07/16 08:37:49;;;;;;;17.83;3.78;;;31.90;67.20;;;;;;5059302;28;20088;-67
2021/07/16 08:40:16;;;;;;;13.70;3.28;;;31.90;67.20;;;;;;5063090;28;20123;-68
2021/07/16 08:42:45;;;;;;;9.63;2.80;;;31.90;67.40;;;;;;5064350;28;20077;-68
2021/07/16 08:45:12;;;;;;;10.05;3.05;;;31.90;67.40;;;;;;5062345;28;20082;-68
2021/07/16 08:47:39;;;;;;;11.82;2.58;;;31.90;67.10;;;;;;5065033;28;20104;-68
2021/07/16 08:50:08;;;;;;;11.93;2.50;;;31.90;67.00;;;;;;5064249;28;20105;-66
2021/07/16 08:52:36;;;;;;;14.38;3.33;;;31.90;67.70;;;;;;5063801;28;20463;-68
2021/07/16 08:55:07;;;;;;;13.25;3.42;;;31.80;67.00;;;;;;5045901;28;20073;-68
2021/07/16 08:57:34;;;;;;;12.18;3.72;;;31.80;67.40;;;;;;5062621;28;20077;-68
2021/07/16 09:00:00;;;;;;;10.00;3.08;;;31.80;67.10;;;;;;5060528;28;20073;-68
2021/07/16 09:02:29;;;;;;;11.63;3.15;;;31.70;68.20;;;;;;5048820;28;20611;-68
2021/07/16 09:05:01;;;;;;;15.10;3.22;;;31.80;67.50;;;;;;5062783;28;20069;-68
2021/07/16 09:07:28;;;;;;;16.20;3.95;;;31.70;67.20;;;;;;5065364;28;20065;-68
2021/07/16 09:10:12;;;;;;;12.52;3.55;;;31.70;67.10;;;;;;5061823;28;20093;-68
2021/07/16 09:12:39;;;;;;;15.45;4.20;;;31.60;67.50;;;;;;5065044;28;20088;-68
2021/07/16 09:15:14;;;;;;;11.20;3.20;;;31.70;67.20;;;;;;5065675;28;20122;-68
2021/07/16 09:17:47;;;;;;;12.00;3.05;;;31.70;67.80;;;;;;5066687;28;20090;-68
2021/07/16 09:20:25;;;;;;;11.63;2.95;;;31.70;67.60;;;;;;5061743;28;20179;-68
2021/07/16 09:23:10;;;;;;;14.38;3.03;;;31.60;66.80;;;;;;5064006;28;20557;-68
2021/07/16 09:25:38;;;;;;;11.80;2.72;;;31.60;66.40;;;;;;5066234;28;20069;-68
2021/07/16 09:28:05;;;;;;;9.35;3.10;;;31.60;66.20;;;;;;5061189;28;20089;-68
2021/07/16 09:30:32;;;;;;;9.25;2.85;;;31.50;65.90;;;;;;5056458;28;20124;-68
2021/07/16 09:33:06;;;;;;;9.77;2.67;;;31.50;66.10;;;;;;5061369;28;20065;-68
2021/07/16 09:35:38;;;;;;;9.95;2.80;;;31.50;66.80;;;;;;5057787;28;20082;-67
2021/07/16 09:38:08;;;;;;;11.27;2.83;;;31.50;67.40;;;;;;5065847;28;20108;-68
2021/07/16 09:40:46;;;;;;;11.77;2.97;;;31.40;67.60;;;;;;5069940;28;20099;-69
2021/07/16 09:43:16;;;;;;;17.63;3.22;;;31.40;66.80;;;;;;5067277;28;20101;-69
2021/07/16 09:45:58;;;;;;;13.52;3.35;;;31.30;67.30;;;;;;5048666;28;20080;-70
2021/07/16 09:48:35;;;;;;;12.68;2.83;;;31.30;67.40;;;;;;5064312;28;20084;-69
2021/07/16 09:51:18;;;;;;;15.18;2.95;;;31.30;67.50;;;;;;5070359;28;20117;-67
2021/07/16 09:54:02;;;;;;;14.27;3.42;;;31.30;68.40;;;;;;5068018;28;20076;-68
2021/07/16 09:56:31;;;;;;;11.27;2.80;;;31.30;68.50;;;;;;5065577;28;20080;-68
2021/07/16 09:59:03;;;;;;;11.73;2.75;;;31.20;68.70;;;;;;5048963;28;20076;-68
2021/07/16 10:01:31;;;;;;;12.45;2.60;;;31.10;69.00;;;;;;5066683;28;20074;-68
2021/07/16 10:04:01;;;;;;;12.80;2.70;;;31.20;69.40;;;;;;5066879;28;20089;-68
2021/07/16 10:06:29;;;;;;;10.50;2.65;;;31.20;69.50;;;;;;5068816;28;20426;-68
2021/07/16 10:08:57;;;;;;;11.13;3.22;;;31.10;69.90;;;;;;5064836;28;20085;-67
2021/07/16 10:11:26;;;;;;;12.18;2.60;;;31.00;70.40;;;;;;5061229;28;20175;-67
2021/07/16 10:13:54;;;;;;;17.55;3.55;;;31.00;70.70;;;;;;5063328;28;20078;-68
2021/07/16 10:16:20;;;;;;;15.07;2.83;;;31.00;71.00;;;;;;5066570;28;20101;-67
2021/07/16 10:18:47;;;;;;;11.80;3.05;;;31.00;71.20;;;;;;5071361;28;20503;-67
2021/07/16 10:21:14;;;;;;;11.02;3.13;;;31.00;71.30;;;;;;5045129;28;20530;-68
2021/07/16 10:23:41;;;;;;;11.65;2.30;;;31.00;71.20;;;;;;5050257;28;20653;-67
2021/07/16 10:26:13;;;;;;;14.30;3.10;;;31.00;71.30;;;;;;5069371;28;20073;-67
2021/07/16 10:28:44;;;;;;;13.00;2.78;;;31.00;72.00;;;;;;5067329;28;20117;-67
2021/07/16 10:31:37;;;;;;;12.00;2.83;;;31.00;73.10;;;;;;5065863;28;20097;-67
2021/07/16 10:34:12;;;;;;;16.23;3.08;;;31.00;73.50;;;;;;5066918;28;20077;-67
2021/07/16 10:36:46;;;;;;;13.43;3.63;;;30.80;74.10;;;;;;5066805;28;20110;-67
2021/07/16 10:39:21;;;;;;;11.75;2.78;;;30.80;75.00;;;;;;5062290;28;20151;-68
2021/07/16 10:41:48;;;;;;;12.40;3.00;;;30.70;75.40;;;;;;5064474;28;20068;-68
2021/07/16 10:44:35;;;;;;;9.88;3.10;;;30.70;75.80;;;;;;5063442;28;20081;-68
2021/07/16 10:47:33;;;;;;;11.05;3.20;;;30.60;76.20;;;;;;5063925;28;20073;-68
2021/07/16 10:50:01;;;;;;;17.30;3.22;;;30.60;77.00;;;;;;5069121;28;20104;-68
2021/07/16 10:52:46;;;;;;;13.23;3.25;;;30.60;77.60;;;;;;5064623;28;20130;-68
2021/07/16 10:55:14;;;;;;;17.58;2.83;;;30.60;77.80;;;;;;5061944;28;20415;-68
2021/07/16 10:57:49;;;;;;;11.95;2.80;;;30.60;77.80;;;;;;5065130;28;20072;-68
2021/07/16 11:00:37;;;;;;;12.32;3.55;;;30.60;78.10;;;;;;5061862;28;20072;-68
2021/07/16 11:03:11;;;;;;;14.18;3.33;;;30.60;78.30;;;;;;5065061;28;20537;-68
2021/07/16 11:05:45;;;;;;;10.50;3.10;;;30.40;79.10;;;;;;5050351;28;20076;-68
2021/07/16 11:08:38;;;;;;;17.35;3.45;;;30.50;79.40;;;;;;5067620;28;20190;-68
2021/07/16 11:11:17;;;;;;;17.60;3.58;;;30.50;79.40;;;;;;5065851;28;20531;-68
2021/07/16 11:13:48;;;;;;;8.23;2.72;;;30.40;79.50;;;;;;5064391;28;20101;-68
2021/07/16 11:16:31;;;;;;;12.38;3.33;;;30.40;79.80;;;;;;5067192;28;20085;-68
2021/07/16 11:19:06;;;;;;;10.63;3.13;;;30.40;79.90;;;;;;5064936;28;20069;-68
2021/07/16 11:21:53;;;;;;;16.65;3.22;;;30.40;80.10;;;;;;5045511;28;20123;-68
2021/07/16 11:26:50;;;;;;;10.00;3.38;;;30.40;79.90;;;;;;5066049;28;20072;-68
2021/07/16 11:29:18;;;;;;;11.52;2.97;;;30.40;80.10;;;;;;5064361;28;20078;-68
2021/07/16 11:31:45;;;;;;;19.90;3.38;;;30.30;80.70;;;;;;5069327;28;20108;-68
2021/07/16 11:34:16;;;;;;;13.75;3.58;;;30.20;81.10;;;;;;5067030;28;20101;-68
2021/07/16 11:36:49;;;;;;;14.20;4.13;;;30.30;81.30;;;;;;5066331;28;20076;-68
2021/07/16 11:39:36;;;;;;;12.30;3.88;;;30.20;81.60;;;;;;5068075;28;20133;-68
2021/07/16 11:42:05;;;;;;;11.70;3.72;;;30.20;81.80;;;;;;5046974;28;20096;-68
2021/07/16 11:44:42;;;;;;;16.88;4.10;;;30.20;81.90;;;;;;5066945;28;20077;-69
2021/07/16 11:47:17;;;;;;;13.85;3.90;;;30.20;82.00;;;;;;5062238;28;20073;-69
2021/07/16 11:49:59;;;;;;;14.10;4.22;;;30.30;82.10;;;;;;5067381;28;20116;-70
2021/07/16 11:52:28;;;;;;;17.02;4.28;;;30.30;81.80;;;;;;5064720;28;20151;-68
2021/07/16 11:55:19;;;;;;;14.02;4.30;;;30.20;82.20;;;;;;5064638;28;20115;-69
2021/07/16 11:57:56;;;;;;;13.82;4.32;;;30.20;83.20;;;;;;5065121;28;20159;-68
2021/07/16 12:00:30;;;;;;;17.02;4.05;;;30.20;83.70;;;;;;5061169;28;20509;-68
2021/07/16 12:03:04;;;;;;;14.88;3.90;;;30.20;83.70;;;;;;5063312;28;20510;-68
2021/07/16 12:05:32;;;;;;;17.35;4.43;;;30.20;83.80;;;;;;5060733;28;20506;-68
2021/07/16 12:07:59;;;;;;;18.13;5.20;;;30.10;84.90;;;;;;5061398;28;20076;-68
2021/07/16 12:10:26;;;;;;;16.60;4.53;;;30.10;85.50;;;;;;5062182;28;20494;-68
2021/07/16 12:13:02;;;;;;;13.88;3.65;;;30.20;85.30;;;;;;5060416;28;20100;-68
2021/07/16 12:15:29;;;;;;;15.23;3.85;;;30.10;85.00;;;;;;5066583;28;20083;-68
2021/07/16 12:17:56;;;;;;;13.35;4.03;;;30.10;85.40;;;;;;5065657;28;20599;-69
2021/07/16 12:20:29;;;;;;;22.85;4.10;;;30.00;85.70;;;;;;5063338;28;20548;-69
2021/07/16 12:22:57;;;;;;;15.27;4.35;;;30.00;86.80;;;;;;5044193;28;20092;-68
2021/07/16 12:25:24;;;;;;;17.63;4.00;;;29.90;86.30;;;;;;5064142;28;20077;-70
2021/07/16 12:28:14;;;;;;;14.43;4.38;;;29.90;86.70;;;;;;5070287;28;20081;-69
2021/07/16 12:30:41;;;;;;;16.05;4.07;;;29.90;87.10;;;;;;5058571;28;20125;-69
2021/07/16 12:33:08;;;;;;;25.42;7.30;;;29.80;87.30;;;;;;5064465;28;20131;-69
2021/07/16 12:35:44;;;;;;;53.75;13.40;;;29.80;87.50;;;;;;5062367;28;20100;-69
2021/07/16 12:38:13;;;;;;;44.38;19.00;;;29.80;87.60;;;;;;5048309;28;20069;-69
2021/07/16 12:40:47;;;;;;;38.95;16.88;;;29.90;87.50;;;;;;5063456;28;20085;-69
2021/07/16 12:43:20;;;;;;;33.43;15.40;;;29.80;87.40;;;;;;5049549;28;20097;-68
2021/07/16 12:45:55;;;;;;;33.00;13.00;;;29.80;87.50;;;;;;5060929;28;20077;-68
2021/07/16 12:48:30;;;;;;;27.23;9.27;;;29.80;87.10;;;;;;5062339;28;20100;-69